sensor_id;sensor_type;location;lat;lon;timestamp;P1;durP1;ratioP1;P2;durP2;ratioP2
72335;SDS011;65062;48.446;8.834;2023-06-10T00:02:42;4.20;;;3.13;;
72335;SDS011;65062;48.446;8.834;2023-06-10T00:05:43;3.53;;;2.92;;
72335;SDS011;65062;48.446;8.834;2023-06-10T00:08:44;6.10;;;3.28;;
72335;SDS011;65062;48.446;8.834;2023-06-10T00:11:47;3.35;;;2.67;;
72335;SDS011;65062;48.446;8.834;2023-06-10T00:14:47;4.60;;;3.15;;
72335;SDS011;65062;48.446;8.834;2023-06-10T00:17:50;4.07;;;2.88;;
72335;SDS011;65062;48.446;8.834;2023-06-10T00:20:52;4.30;;;3.25;;
72335;SDS011;65062;48.446;8.834;2023-06-10T00:23:55;5.63;;;3.25;;
72335;SDS011;65062;48.446;8.834;2023-06-10T00:26:55;5.65;;;3.25;;
72335;SDS011;65062;48.446;8.834;2023-06-10T00:29:55;7.70;;;2.95;;
72335;SDS011;65062;48.446;8.834;2023-06-10T00:32:56;3.30;;;3.00;;
72335;SDS011;65062;48.446;8.834;2023-06-10T00:35:56;4.82;;;2.92;;
72335;SDS011;65062;48.446;8.834;2023-06-10T00:38:57;4.70;;;3.20;;
72335;SDS011;65062;48.446;8.834;2023-06-10T00:41:57;4.35;;;3.33;;
72335;SDS011;65062;48.446;8.834;2023-06-10T00:44:57;3.85;;;3.33;;
72335;SDS011;65062;48.446;8.834;2023-06-10T00:47:58;4.32;;;3.50;;
72335;SDS011;65062;48.446;8.834;2023-06-10T00:51:00;4.57;;;3.00;;
72335;SDS011;65062;48.446;8.834;2023-06-10T00:54:00;4.82;;;2.90;;
72335;SDS011;65062;48.446;8.834;2023-06-10T00:57:01;3.42;;;2.58;;
72335;SDS011;65062;48.446;8.834;2023-06-10T01:00:02;3.45;;;3.15;;
72335;SDS011;65062;48.446;8.834;2023-06-10T01:03:03;4.18;;;2.50;;
72335;SDS011;65062;48.446;8.834;2023-06-10T01:15:59;4.22;;;3.10;;
72335;SDS011;65062;48.446;8.834;2023-06-10T01:19:00;4.90;;;3.30;;
72335;SDS011;65062;48.446;8.834;2023-06-10T01:22:00;4.40;;;3.65;;
72335;SDS011;65062;48.446;8.834;2023-06-10T01:25:00;5.97;;;3.38;;
72335;SDS011;65062;48.446;8.834;2023-06-10T01:28:13;5.03;;;3.55;;
72335;SDS011;65062;48.446;8.834;2023-06-10T01:34:34;3.97;;;2.45;;
72335;SDS011;65062;48.446;8.834;2023-06-10T01:37:38;4.15;;;3.33;;
72335;SDS011;65062;48.446;8.834;2023-06-10T01:40:40;6.60;;;3.47;;
72335;SDS011;65062;48.446;8.834;2023-06-10T01:43:42;5.15;;;3.17;;
72335;SDS011;65062;48.446;8.834;2023-06-10T01:46:43;5.03;;;3.72;;
72335;SDS011;65062;48.446;8.834;2023-06-10T01:49:44;5.15;;;3.75;;
72335;SDS011;65062;48.446;8.834;2023-06-10T01:52:45;3.45;;;3.03;;
72335;SDS011;65062;48.446;8.834;2023-06-10T01:55:45;4.13;;;3.25;;
72335;SDS011;65062;48.446;8.834;2023-06-10T01:58:46;4.88;;;3.42;;
72335;SDS011;65062;48.446;8.834;2023-06-10T02:01:46;4.72;;;3.60;;
72335;SDS011;65062;48.446;8.834;2023-06-10T02:04:47;5.63;;;4.00;;
72335;SDS011;65062;48.446;8.834;2023-06-10T02:07:47;5.55;;;3.35;;
72335;SDS011;65062;48.446;8.834;2023-06-10T02:10:48;5.18;;;3.63;;
72335;SDS011;65062;48.446;8.834;2023-06-10T02:13:48;3.90;;;3.45;;
72335;SDS011;65062;48.446;8.834;2023-06-10T02:16:48;4.60;;;3.40;;
72335;SDS011;65062;48.446;8.834;2023-06-10T02:19:49;5.07;;;3.40;;
72335;SDS011;65062;48.446;8.834;2023-06-10T02:22:52;5.28;;;3.13;;
72335;SDS011;65062;48.446;8.834;2023-06-10T02:25:52;4.55;;;3.25;;
72335;SDS011;65062;48.446;8.834;2023-06-10T02:28:53;4.53;;;3.63;;
72335;SDS011;65062;48.446;8.834;2023-06-10T02:31:53;5.10;;;3.60;;
72335;SDS011;65062;48.446;8.834;2023-06-10T02:34:54;4.85;;;3.85;;
72335;SDS011;65062;48.446;8.834;2023-06-10T02:37:54;6.28;;;3.65;;
72335;SDS011;65062;48.446;8.834;2023-06-10T02:40:54;6.93;;;3.47;;
72335;SDS011;65062;48.446;8.834;2023-06-10T02:43:55;4.38;;;3.05;;
72335;SDS011;65062;48.446;8.834;2023-06-10T02:46:55;8.73;;;4.10;;
72335;SDS011;65062;48.446;8.834;2023-06-10T02:49:55;3.90;;;3.15;;
72335;SDS011;65062;48.446;8.834;2023-06-10T02:52:56;4.03;;;3.38;;
72335;SDS011;65062;48.446;8.834;2023-06-10T02:55:56;5.65;;;3.67;;
72335;SDS011;65062;48.446;8.834;2023-06-10T02:58:57;6.05;;;3.75;;
72335;SDS011;65062;48.446;8.834;2023-06-10T03:01:57;4.82;;;3.30;;
72335;SDS011;65062;48.446;8.834;2023-06-10T03:04:59;6.43;;;4.13;;
72335;SDS011;65062;48.446;8.834;2023-06-10T03:07:59;4.72;;;3.70;;
72335;SDS011;65062;48.446;8.834;2023-06-10T03:11:00;4.32;;;3.33;;
72335;SDS011;65062;48.446;8.834;2023-06-10T03:14:00;6.53;;;3.80;;
72335;SDS011;65062;48.446;8.834;2023-06-10T03:17:00;5.68;;;3.65;;
72335;SDS011;65062;48.446;8.834;2023-06-10T03:20:01;4.85;;;3.63;;
72335;SDS011;65062;48.446;8.834;2023-06-10T03:23:06;4.95;;;3.70;;
72335;SDS011;65062;48.446;8.834;2023-06-10T03:26:06;6.28;;;3.90;;
72335;SDS011;65062;48.446;8.834;2023-06-10T03:29:07;4.97;;;4.03;;
72335;SDS011;65062;48.446;8.834;2023-06-10T03:32:08;5.53;;;3.63;;
72335;SDS011;65062;48.446;8.834;2023-06-10T03:35:08;5.32;;;3.00;;
72335;SDS011;65062;48.446;8.834;2023-06-10T03:38:09;6.38;;;4.25;;
72335;SDS011;65062;48.446;8.834;2023-06-10T03:41:10;4.68;;;3.20;;
72335;SDS011;65062;48.446;8.834;2023-06-10T03:44:10;3.80;;;3.08;;
72335;SDS011;65062;48.446;8.834;2023-06-10T03:47:10;5.10;;;4.10;;
72335;SDS011;65062;48.446;8.834;2023-06-10T03:50:12;5.65;;;3.88;;
72335;SDS011;65062;48.446;8.834;2023-06-10T03:53:13;6.07;;;3.85;;
72335;SDS011;65062;48.446;8.834;2023-06-10T03:56:13;5.95;;;3.75;;
72335;SDS011;65062;48.446;8.834;2023-06-10T03:59:13;5.53;;;3.83;;
72335;SDS011;65062;48.446;8.834;2023-06-10T04:02:14;6.10;;;4.32;;
72335;SDS011;65062;48.446;8.834;2023-06-10T04:05:15;5.07;;;3.88;;
72335;SDS011;65062;48.446;8.834;2023-06-10T04:08:16;5.38;;;3.03;;
72335;SDS011;65062;48.446;8.834;2023-06-10T04:11:16;4.93;;;3.92;;
72335;SDS011;65062;48.446;8.834;2023-06-10T04:14:17;4.40;;;3.30;;
72335;SDS011;65062;48.446;8.834;2023-06-10T04:17:17;6.07;;;4.13;;
72335;SDS011;65062;48.446;8.834;2023-06-10T04:20:18;5.38;;;4.22;;
72335;SDS011;65062;48.446;8.834;2023-06-10T04:23:18;5.07;;;3.40;;
72335;SDS011;65062;48.446;8.834;2023-06-10T04:26:18;6.10;;;4.40;;
72335;SDS011;65062;48.446;8.834;2023-06-10T04:29:19;5.28;;;4.07;;
72335;SDS011;65062;48.446;8.834;2023-06-10T04:32:19;6.25;;;3.70;;
72335;SDS011;65062;48.446;8.834;2023-06-10T04:35:20;6.00;;;4.13;;
72335;SDS011;65062;48.446;8.834;2023-06-10T04:38:20;6.00;;;4.45;;
72335;SDS011;65062;48.446;8.834;2023-06-10T04:41:21;5.72;;;4.25;;
72335;SDS011;65062;48.446;8.834;2023-06-10T04:44:22;8.73;;;4.45;;
72335;SDS011;65062;48.446;8.834;2023-06-10T04:47:22;4.70;;;3.88;;
72335;SDS011;65062;48.446;8.834;2023-06-10T04:50:23;4.57;;;3.30;;
72335;SDS011;65062;48.446;8.834;2023-06-10T04:53:24;4.60;;;3.40;;
72335;SDS011;65062;48.446;8.834;2023-06-10T04:56:24;4.72;;;4.03;;
72335;SDS011;65062;48.446;8.834;2023-06-10T04:59:25;6.57;;;4.03;;
72335;SDS011;65062;48.446;8.834;2023-06-10T05:02:26;5.53;;;3.97;;
72335;SDS011;65062;48.446;8.834;2023-06-10T05:05:26;5.82;;;4.18;;
72335;SDS011;65062;48.446;8.834;2023-06-10T05:08:26;6.13;;;4.32;;
72335;SDS011;65062;48.446;8.834;2023-06-10T05:11:27;4.95;;;3.40;;
72335;SDS011;65062;48.446;8.834;2023-06-10T05:14:27;4.93;;;4.00;;
72335;SDS011;65062;48.446;8.834;2023-06-10T05:17:27;7.65;;;4.65;;
72335;SDS011;65062;48.446;8.834;2023-06-10T05:20:28;6.20;;;4.40;;
72335;SDS011;65062;48.446;8.834;2023-06-10T05:23:30;5.13;;;3.78;;
72335;SDS011;65062;48.446;8.834;2023-06-10T05:26:30;5.32;;;3.85;;
72335;SDS011;65062;48.446;8.834;2023-06-10T05:29:37;6.53;;;3.88;;
72335;SDS011;65062;48.446;8.834;2023-06-10T05:32:37;5.13;;;3.88;;
72335;SDS011;65062;48.446;8.834;2023-06-10T05:35:38;4.95;;;4.00;;
72335;SDS011;65062;48.446;8.834;2023-06-10T05:38:38;5.18;;;3.65;;
72335;SDS011;65062;48.446;8.834;2023-06-10T05:41:38;5.35;;;4.40;;
72335;SDS011;65062;48.446;8.834;2023-06-10T05:44:39;7.30;;;4.43;;
72335;SDS011;65062;48.446;8.834;2023-06-10T05:47:40;5.75;;;4.38;;
72335;SDS011;65062;48.446;8.834;2023-06-10T05:50:40;5.25;;;3.92;;
72335;SDS011;65062;48.446;8.834;2023-06-10T05:53:42;6.40;;;4.63;;
72335;SDS011;65062;48.446;8.834;2023-06-10T05:56:42;6.18;;;4.45;;
72335;SDS011;65062;48.446;8.834;2023-06-10T05:59:44;9.52;;;4.43;;
72335;SDS011;65062;48.446;8.834;2023-06-10T06:02:44;5.90;;;4.18;;
72335;SDS011;65062;48.446;8.834;2023-06-10T06:05:45;4.88;;;4.13;;
72335;SDS011;65062;48.446;8.834;2023-06-10T06:08:46;5.32;;;4.57;;
72335;SDS011;65062;48.446;8.834;2023-06-10T06:11:46;4.95;;;3.97;;
72335;SDS011;65062;48.446;8.834;2023-06-10T06:14:47;4.80;;;3.90;;
72335;SDS011;65062;48.446;8.834;2023-06-10T06:17:49;7.53;;;4.53;;
72335;SDS011;65062;48.446;8.834;2023-06-10T06:20:52;6.60;;;4.47;;
72335;SDS011;65062;48.446;8.834;2023-06-10T06:23:53;6.00;;;4.40;;
72335;SDS011;65062;48.446;8.834;2023-06-10T06:26:53;5.70;;;4.63;;
72335;SDS011;65062;48.446;8.834;2023-06-10T06:29:53;5.88;;;4.50;;
72335;SDS011;65062;48.446;8.834;2023-06-10T06:32:54;5.45;;;4.10;;
72335;SDS011;65062;48.446;8.834;2023-06-10T06:35:55;6.05;;;4.22;;
72335;SDS011;65062;48.446;8.834;2023-06-10T06:38:55;6.43;;;4.63;;
72335;SDS011;65062;48.446;8.834;2023-06-10T06:41:56;5.25;;;4.18;;
72335;SDS011;65062;48.446;8.834;2023-06-10T06:44:56;6.28;;;4.55;;
72335;SDS011;65062;48.446;8.834;2023-06-10T06:47:57;5.40;;;4.30;;
72335;SDS011;65062;48.446;8.834;2023-06-10T06:50:57;5.53;;;4.65;;
72335;SDS011;65062;48.446;8.834;2023-06-10T06:53:58;5.82;;;4.20;;
72335;SDS011;65062;48.446;8.834;2023-06-10T06:56:58;6.80;;;4.55;;
72335;SDS011;65062;48.446;8.834;2023-06-10T06:59:59;5.53;;;3.97;;
72335;SDS011;65062;48.446;8.834;2023-06-10T07:02:59;5.35;;;3.97;;
72335;SDS011;65062;48.446;8.834;2023-06-10T07:06:00;4.57;;;4.15;;
72335;SDS011;65062;48.446;8.834;2023-06-10T07:09:00;4.88;;;3.75;;
72335;SDS011;65062;48.446;8.834;2023-06-10T07:12:00;5.07;;;4.13;;
72335;SDS011;65062;48.446;8.834;2023-06-10T07:15:01;5.88;;;3.72;;
72335;SDS011;65062;48.446;8.834;2023-06-10T07:18:01;5.03;;;3.80;;
72335;SDS011;65062;48.446;8.834;2023-06-10T07:21:02;6.57;;;3.83;;
72335;SDS011;65062;48.446;8.834;2023-06-10T07:24:02;4.57;;;3.53;;
72335;SDS011;65062;48.446;8.834;2023-06-10T07:27:03;4.00;;;3.63;;
72335;SDS011;65062;48.446;8.834;2023-06-10T07:30:04;5.00;;;3.30;;
72335;SDS011;65062;48.446;8.834;2023-06-10T07:33:06;3.80;;;3.40;;
72335;SDS011;65062;48.446;8.834;2023-06-10T07:36:07;3.40;;;3.03;;
72335;SDS011;65062;48.446;8.834;2023-06-10T07:39:08;5.47;;;4.18;;
72335;SDS011;65062;48.446;8.834;2023-06-10T07:42:08;5.57;;;4.03;;
72335;SDS011;65062;48.446;8.834;2023-06-10T07:48:10;4.28;;;3.58;;
72335;SDS011;65062;48.446;8.834;2023-06-10T07:51:10;4.55;;;3.58;;
72335;SDS011;65062;48.446;8.834;2023-06-10T07:54:11;5.40;;;3.60;;
72335;SDS011;65062;48.446;8.834;2023-06-10T07:57:14;5.45;;;3.15;;
72335;SDS011;65062;48.446;8.834;2023-06-10T08:00:15;3.72;;;3.20;;
72335;SDS011;65062;48.446;8.834;2023-06-10T08:03:16;4.32;;;3.30;;
72335;SDS011;65062;48.446;8.834;2023-06-10T08:06:16;4.25;;;3.20;;
72335;SDS011;65062;48.446;8.834;2023-06-10T08:09:17;5.00;;;3.15;;
72335;SDS011;65062;48.446;8.834;2023-06-10T08:15:18;4.93;;;3.40;;
72335;SDS011;65062;48.446;8.834;2023-06-10T08:18:19;4.05;;;3.40;;
72335;SDS011;65062;48.446;8.834;2023-06-10T08:21:19;5.55;;;2.67;;
72335;SDS011;65062;48.446;8.834;2023-06-10T08:24:20;3.97;;;3.22;;
72335;SDS011;65062;48.446;8.834;2023-06-10T08:27:20;4.53;;;3.50;;
72335;SDS011;65062;48.446;8.834;2023-06-10T08:30:21;4.65;;;2.90;;
72335;SDS011;65062;48.446;8.834;2023-06-10T08:33:21;5.50;;;3.58;;
72335;SDS011;65062;48.446;8.834;2023-06-10T08:36:21;4.10;;;3.50;;
72335;SDS011;65062;48.446;8.834;2023-06-10T08:39:22;5.28;;;3.47;;
72335;SDS011;65062;48.446;8.834;2023-06-10T08:42:24;4.68;;;2.80;;
72335;SDS011;65062;48.446;8.834;2023-06-10T08:45:36;4.28;;;3.28;;
72335;SDS011;65062;48.446;8.834;2023-06-10T08:48:39;4.00;;;3.13;;
72335;SDS011;65062;48.446;8.834;2023-06-10T08:51:44;4.45;;;3.33;;
72335;SDS011;65062;48.446;8.834;2023-06-10T08:54:52;4.10;;;3.00;;
72335;SDS011;65062;48.446;8.834;2023-06-10T08:57:54;3.45;;;2.67;;
72335;SDS011;65062;48.446;8.834;2023-06-10T09:00:55;2.70;;;2.30;;
72335;SDS011;65062;48.446;8.834;2023-06-10T09:03:55;4.53;;;3.20;;
72335;SDS011;65062;48.446;8.834;2023-06-10T09:06:58;4.10;;;2.78;;
72335;SDS011;65062;48.446;8.834;2023-06-10T09:10:00;2.88;;;2.58;;
72335;SDS011;65062;48.446;8.834;2023-06-10T09:13:03;3.85;;;3.08;;
72335;SDS011;65062;48.446;8.834;2023-06-10T09:16:04;2.95;;;2.35;;
72335;SDS011;65062;48.446;8.834;2023-06-10T09:19:05;4.28;;;2.92;;
72335;SDS011;65062;48.446;8.834;2023-06-10T09:22:08;4.00;;;2.85;;
72335;SDS011;65062;48.446;8.834;2023-06-10T09:25:09;3.65;;;2.63;;
72335;SDS011;65062;48.446;8.834;2023-06-10T09:28:14;4.38;;;2.45;;
72335;SDS011;65062;48.446;8.834;2023-06-10T09:31:15;5.95;;;3.00;;
72335;SDS011;65062;48.446;8.834;2023-06-10T09:34:18;3.15;;;1.83;;
72335;SDS011;65062;48.446;8.834;2023-06-10T09:37:22;2.60;;;2.40;;
72335;SDS011;65062;48.446;8.834;2023-06-10T09:40:23;3.28;;;2.38;;
72335;SDS011;65062;48.446;8.834;2023-06-10T09:46:39;3.28;;;2.47;;
72335;SDS011;65062;48.446;8.834;2023-06-10T09:49:39;2.00;;;1.80;;
72335;SDS011;65062;48.446;8.834;2023-06-10T09:52:40;2.67;;;2.17;;
72335;SDS011;65062;48.446;8.834;2023-06-10T09:55:41;3.17;;;2.58;;
72335;SDS011;65062;48.446;8.834;2023-06-10T09:58:41;2.92;;;2.25;;
72335;SDS011;65062;48.446;8.834;2023-06-10T10:01:43;3.63;;;2.53;;
72335;SDS011;65062;48.446;8.834;2023-06-10T10:04:57;2.50;;;2.08;;
72335;SDS011;65062;48.446;8.834;2023-06-10T10:08:02;3.30;;;2.65;;
72335;SDS011;65062;48.446;8.834;2023-06-10T10:14:03;2.88;;;1.60;;
72335;SDS011;65062;48.446;8.834;2023-06-10T10:17:09;3.50;;;1.73;;
72335;SDS011;65062;48.446;8.834;2023-06-10T10:20:12;2.70;;;2.47;;
72335;SDS011;65062;48.446;8.834;2023-06-10T10:23:14;2.95;;;2.20;;
72335;SDS011;65062;48.446;8.834;2023-06-10T10:26:21;4.18;;;2.80;;
72335;SDS011;65062;48.446;8.834;2023-06-10T10:29:29;2.92;;;2.50;;
72335;SDS011;65062;48.446;8.834;2023-06-10T10:32:35;4.82;;;3.92;;
72335;SDS011;65062;48.446;8.834;2023-06-10T10:35:40;3.20;;;2.38;;
72335;SDS011;65062;48.446;8.834;2023-06-10T10:38:41;2.58;;;2.38;;
72335;SDS011;65062;48.446;8.834;2023-06-10T10:41:43;2.50;;;2.25;;
72335;SDS011;65062;48.446;8.834;2023-06-10T10:44:44;2.20;;;2.00;;
72335;SDS011;65062;48.446;8.834;2023-06-10T10:50:55;3.00;;;2.40;;
72335;SDS011;65062;48.446;8.834;2023-06-10T10:54:12;2.67;;;2.10;;
72335;SDS011;65062;48.446;8.834;2023-06-10T10:57:14;2.28;;;1.92;;
72335;SDS011;65062;48.446;8.834;2023-06-10T11:00:24;3.35;;;1.80;;
72335;SDS011;65062;48.446;8.834;2023-06-10T11:03:29;2.05;;;1.85;;
72335;SDS011;65062;48.446;8.834;2023-06-10T11:06:30;3.08;;;1.75;;
72335;SDS011;65062;48.446;8.834;2023-06-10T11:15:45;1.95;;;1.85;;
72335;SDS011;65062;48.446;8.834;2023-06-10T11:18:49;2.03;;;1.52;;
72335;SDS011;65062;48.446;8.834;2023-06-10T11:21:57;2.20;;;1.95;;
72335;SDS011;65062;48.446;8.834;2023-06-10T11:24:59;3.13;;;2.17;;
72335;SDS011;65062;48.446;8.834;2023-06-10T11:28:00;3.03;;;2.15;;
72335;SDS011;65062;48.446;8.834;2023-06-10T11:31:00;2.08;;;1.88;;
72335;SDS011;65062;48.446;8.834;2023-06-10T11:34:04;2.37;;;2.13;;
72335;SDS011;65062;48.446;8.834;2023-06-10T11:37:06;3.03;;;2.58;;
72335;SDS011;65062;48.446;8.834;2023-06-10T11:40:07;1.80;;;1.42;;
72335;SDS011;65062;48.446;8.834;2023-06-10T11:43:08;2.53;;;2.00;;
72335;SDS011;65062;48.446;8.834;2023-06-10T11:46:09;2.45;;;2.20;;
72335;SDS011;65062;48.446;8.834;2023-06-10T11:49:10;2.67;;;2.42;;
72335;SDS011;65062;48.446;8.834;2023-06-10T11:52:11;2.35;;;2.15;;
72335;SDS011;65062;48.446;8.834;2023-06-10T11:55:12;1.98;;;1.80;;
72335;SDS011;65062;48.446;8.834;2023-06-10T11:58:15;2.10;;;1.90;;
72335;SDS011;65062;48.446;8.834;2023-06-10T12:04:21;2.00;;;1.88;;
72335;SDS011;65062;48.446;8.834;2023-06-10T12:07:22;2.35;;;2.15;;
72335;SDS011;65062;48.446;8.834;2023-06-10T12:10:22;3.15;;;2.10;;
72335;SDS011;65062;48.446;8.834;2023-06-10T12:13:23;3.05;;;2.30;;
72335;SDS011;65062;48.446;8.834;2023-06-10T12:16:26;2.05;;;1.95;;
72335;SDS011;65062;48.446;8.834;2023-06-10T12:19:26;2.00;;;1.90;;
72335;SDS011;65062;48.446;8.834;2023-06-10T12:22:27;1.95;;;1.85;;
72335;SDS011;65062;48.446;8.834;2023-06-10T12:25:36;2.53;;;1.85;;
72335;SDS011;65062;48.446;8.834;2023-06-10T12:28:37;2.05;;;1.85;;
72335;SDS011;65062;48.446;8.834;2023-06-10T12:31:58;1.55;;;1.45;;
72335;SDS011;65062;48.446;8.834;2023-06-10T12:35:03;2.25;;;1.95;;
72335;SDS011;65062;48.446;8.834;2023-06-10T12:38:05;2.35;;;2.15;;
72335;SDS011;65062;48.446;8.834;2023-06-10T12:41:08;2.88;;;2.10;;
72335;SDS011;65062;48.446;8.834;2023-06-10T12:44:08;2.47;;;2.28;;
72335;SDS011;65062;48.446;8.834;2023-06-10T12:47:09;2.83;;;2.45;;
72335;SDS011;65062;48.446;8.834;2023-06-10T12:50:12;2.55;;;2.05;;
72335;SDS011;65062;48.446;8.834;2023-06-10T12:53:12;1.92;;;1.50;;
72335;SDS011;65062;48.446;8.834;2023-06-10T12:56:13;3.83;;;3.08;;
72335;SDS011;65062;48.446;8.834;2023-06-10T12:59:13;2.25;;;2.05;;
72335;SDS011;65062;48.446;8.834;2023-06-10T13:02:14;2.60;;;2.10;;
72335;SDS011;65062;48.446;8.834;2023-06-10T13:05:14;2.30;;;2.10;;
72335;SDS011;65062;48.446;8.834;2023-06-10T13:08:15;2.28;;;2.08;;
72335;SDS011;65062;48.446;8.834;2023-06-10T13:11:15;2.30;;;2.10;;
72335;SDS011;65062;48.446;8.834;2023-06-10T13:14:16;3.03;;;1.75;;
72335;SDS011;65062;48.446;8.834;2023-06-10T13:17:16;2.70;;;2.50;;
72335;SDS011;65062;48.446;8.834;2023-06-10T13:20:16;2.28;;;2.08;;
72335;SDS011;65062;48.446;8.834;2023-06-10T13:23:17;2.55;;;2.35;;
72335;SDS011;65062;48.446;8.834;2023-06-10T13:26:18;2.40;;;2.20;;
72335;SDS011;65062;48.446;8.834;2023-06-10T13:29:18;2.10;;;1.83;;
72335;SDS011;65062;48.446;8.834;2023-06-10T13:32:18;2.30;;;2.10;;
72335;SDS011;65062;48.446;8.834;2023-06-10T13:35:19;2.63;;;2.42;;
72335;SDS011;65062;48.446;8.834;2023-06-10T13:38:19;2.28;;;2.08;;
72335;SDS011;65062;48.446;8.834;2023-06-10T13:41:20;2.35;;;2.15;;
72335;SDS011;65062;48.446;8.834;2023-06-10T13:44:20;2.88;;;2.35;;
72335;SDS011;65062;48.446;8.834;2023-06-10T13:47:20;2.10;;;1.90;;
72335;SDS011;65062;48.446;8.834;2023-06-10T13:50:21;2.40;;;2.20;;
72335;SDS011;65062;48.446;8.834;2023-06-10T13:53:21;2.00;;;1.80;;
72335;SDS011;65062;48.446;8.834;2023-06-10T13:56:21;1.88;;;1.67;;
72335;SDS011;65062;48.446;8.834;2023-06-10T13:59:23;2.13;;;1.92;;
72335;SDS011;65062;48.446;8.834;2023-06-10T14:02:23;2.22;;;2.03;;
72335;SDS011;65062;48.446;8.834;2023-06-10T14:05:23;2.22;;;2.03;;
72335;SDS011;65062;48.446;8.834;2023-06-10T14:08:24;2.53;;;2.33;;
72335;SDS011;65062;48.446;8.834;2023-06-10T14:11:24;3.95;;;1.75;;
72335;SDS011;65062;48.446;8.834;2023-06-10T14:14:24;2.10;;;1.90;;
72335;SDS011;65062;48.446;8.834;2023-06-10T14:17:25;2.17;;;2.00;;
72335;SDS011;65062;48.446;8.834;2023-06-10T14:20:25;1.80;;;1.70;;
72335;SDS011;65062;48.446;8.834;2023-06-10T14:23:26;2.15;;;1.95;;
72335;SDS011;65062;48.446;8.834;2023-06-10T14:26:27;3.03;;;1.90;;
72335;SDS011;65062;48.446;8.834;2023-06-10T14:29:27;2.35;;;1.80;;
72335;SDS011;65062;48.446;8.834;2023-06-10T14:32:29;2.05;;;1.83;;
72335;SDS011;65062;48.446;8.834;2023-06-10T14:35:29;2.10;;;1.77;;
72335;SDS011;65062;48.446;8.834;2023-06-10T14:38:29;2.73;;;1.90;;
72335;SDS011;65062;48.446;8.834;2023-06-10T14:41:30;1.40;;;1.30;;
72335;SDS011;65062;48.446;8.834;2023-06-10T14:44:30;1.63;;;1.52;;
72335;SDS011;65062;48.446;8.834;2023-06-10T14:47:31;2.15;;;1.98;;
72335;SDS011;65062;48.446;8.834;2023-06-10T14:50:31;1.80;;;1.70;;
72335;SDS011;65062;48.446;8.834;2023-06-10T14:53:32;2.58;;;1.88;;
72335;SDS011;65062;48.446;8.834;2023-06-10T14:56:33;2.30;;;2.07;;
72335;SDS011;65062;48.446;8.834;2023-06-10T14:59:33;2.10;;;1.90;;
72335;SDS011;65062;48.446;8.834;2023-06-10T15:02:34;2.10;;;1.90;;
72335;SDS011;65062;48.446;8.834;2023-06-10T15:05:34;2.43;;;2.20;;
72335;SDS011;65062;48.446;8.834;2023-06-10T15:08:36;2.35;;;2.00;;
72335;SDS011;65062;48.446;8.834;2023-06-10T15:11:37;2.38;;;2.15;;
72335;SDS011;65062;48.446;8.834;2023-06-10T15:14:38;4.35;;;2.35;;
72335;SDS011;65062;48.446;8.834;2023-06-10T15:17:38;1.80;;;1.70;;
72335;SDS011;65062;48.446;8.834;2023-06-10T15:20:38;2.75;;;2.30;;
72335;SDS011;65062;48.446;8.834;2023-06-10T15:23:39;2.40;;;2.20;;
72335;SDS011;65062;48.446;8.834;2023-06-10T15:26:40;2.42;;;2.22;;
72335;SDS011;65062;48.446;8.834;2023-06-10T15:29:40;2.13;;;1.55;;
72335;SDS011;65062;48.446;8.834;2023-06-10T15:32:41;2.20;;;1.45;;
72335;SDS011;65062;48.446;8.834;2023-06-10T15:35:41;2.25;;;2.05;;
72335;SDS011;65062;48.446;8.834;2023-06-10T15:38:41;2.25;;;2.05;;
72335;SDS011;65062;48.446;8.834;2023-06-10T15:41:42;2.47;;;2.20;;
72335;SDS011;65062;48.446;8.834;2023-06-10T15:44:42;3.53;;;2.17;;
72335;SDS011;65062;48.446;8.834;2023-06-10T15:47:42;2.28;;;1.42;;
72335;SDS011;65062;48.446;8.834;2023-06-10T15:50:43;1.77;;;1.67;;
72335;SDS011;65062;48.446;8.834;2023-06-10T15:53:45;2.85;;;2.22;;
72335;SDS011;65062;48.446;8.834;2023-06-10T15:56:48;2.38;;;2.17;;
72335;SDS011;65062;48.446;8.834;2023-06-10T15:59:49;2.33;;;2.13;;
72335;SDS011;65062;48.446;8.834;2023-06-10T16:02:49;2.70;;;2.50;;
72335;SDS011;65062;48.446;8.834;2023-06-10T16:05:50;2.28;;;2.08;;
72335;SDS011;65062;48.446;8.834;2023-06-10T16:08:50;3.00;;;2.70;;
72335;SDS011;65062;48.446;8.834;2023-06-10T16:11:50;2.88;;;2.42;;
72335;SDS011;65062;48.446;8.834;2023-06-10T16:14:51;5.63;;;2.40;;
72335;SDS011;65062;48.446;8.834;2023-06-10T16:17:51;3.05;;;2.08;;
72335;SDS011;65062;48.446;8.834;2023-06-10T16:20:51;2.53;;;2.15;;
72335;SDS011;65062;48.446;8.834;2023-06-10T16:23:52;3.20;;;2.42;;
72335;SDS011;65062;48.446;8.834;2023-06-10T16:26:52;2.40;;;2.20;;
72335;SDS011;65062;48.446;8.834;2023-06-10T16:29:52;2.50;;;2.30;;
72335;SDS011;65062;48.446;8.834;2023-06-10T16:32:53;2.60;;;2.25;;
72335;SDS011;65062;48.446;8.834;2023-06-10T16:35:53;4.20;;;2.25;;
72335;SDS011;65062;48.446;8.834;2023-06-10T16:38:54;2.28;;;2.08;;
72335;SDS011;65062;48.446;8.834;2023-06-10T16:41:54;2.33;;;2.13;;
72335;SDS011;65062;48.446;8.834;2023-06-10T16:44:55;2.88;;;2.28;;
72335;SDS011;65062;48.446;8.834;2023-06-10T16:47:55;3.42;;;2.67;;
72335;SDS011;65062;48.446;8.834;2023-06-10T16:50:56;3.17;;;2.58;;
72335;SDS011;65062;48.446;8.834;2023-06-10T16:56:56;3.10;;;2.60;;
72335;SDS011;65062;48.446;8.834;2023-06-10T16:59:57;3.05;;;2.38;;
72335;SDS011;65062;48.446;8.834;2023-06-10T17:02:57;2.67;;;2.47;;
72335;SDS011;65062;48.446;8.834;2023-06-10T17:05:57;2.92;;;2.60;;
72335;SDS011;65062;48.446;8.834;2023-06-10T17:08:58;4.20;;;2.30;;
72335;SDS011;65062;48.446;8.834;2023-06-10T17:11:58;2.45;;;2.25;;
72335;SDS011;65062;48.446;8.834;2023-06-10T17:14:59;2.50;;;2.30;;
72335;SDS011;65062;48.446;8.834;2023-06-10T17:17:59;2.30;;;2.10;;
72335;SDS011;65062;48.446;8.834;2023-06-10T17:21:00;3.20;;;2.10;;
72335;SDS011;65062;48.446;8.834;2023-06-10T17:24:00;2.88;;;2.15;;
72335;SDS011;65062;48.446;8.834;2023-06-10T17:27:00;2.92;;;2.35;;
72335;SDS011;65062;48.446;8.834;2023-06-10T17:30:01;2.33;;;2.13;;
72335;SDS011;65062;48.446;8.834;2023-06-10T17:33:01;2.80;;;2.45;;
72335;SDS011;65062;48.446;8.834;2023-06-10T17:36:02;3.33;;;2.95;;
72335;SDS011;65062;48.446;8.834;2023-06-10T17:39:02;3.05;;;2.55;;
72335;SDS011;65062;48.446;8.834;2023-06-10T17:42:03;3.38;;;2.47;;
72335;SDS011;65062;48.446;8.834;2023-06-10T17:45:04;3.05;;;2.40;;
72335;SDS011;65062;48.446;8.834;2023-06-10T17:48:04;2.40;;;2.20;;
72335;SDS011;65062;48.446;8.834;2023-06-10T17:51:05;2.75;;;2.08;;
72335;SDS011;65062;48.446;8.834;2023-06-10T17:54:05;2.55;;;2.00;;
72335;SDS011;65062;48.446;8.834;2023-06-10T17:57:07;2.80;;;2.50;;
72335;SDS011;65062;48.446;8.834;2023-06-10T18:00:08;2.72;;;2.20;;
72335;SDS011;65062;48.446;8.834;2023-06-10T18:03:08;2.20;;;2.00;;
72335;SDS011;65062;48.446;8.834;2023-06-10T18:06:09;2.83;;;2.60;;
72335;SDS011;65062;48.446;8.834;2023-06-10T18:12:10;3.10;;;2.80;;
72335;SDS011;65062;48.446;8.834;2023-06-10T18:15:11;2.65;;;2.45;;
72335;SDS011;65062;48.446;8.834;2023-06-10T18:21:11;3.50;;;2.20;;
72335;SDS011;65062;48.446;8.834;2023-06-10T18:27:12;2.97;;;2.40;;
72335;SDS011;65062;48.446;8.834;2023-06-10T18:30:13;3.03;;;2.45;;
72335;SDS011;65062;48.446;8.834;2023-06-10T18:36:14;3.22;;;2.17;;
72335;SDS011;65062;48.446;8.834;2023-06-10T18:42:15;2.47;;;2.28;;
72335;SDS011;65062;48.446;8.834;2023-06-10T18:48:15;2.57;;;2.37;;
72335;SDS011;65062;48.446;8.834;2023-06-10T18:54:16;2.90;;;2.33;;
72335;SDS011;65062;48.446;8.834;2023-06-10T18:57:17;2.10;;;1.73;;
72335;SDS011;65062;48.446;8.834;2023-06-10T19:03:18;2.70;;;2.15;;
72335;SDS011;65062;48.446;8.834;2023-06-10T19:06:18;2.47;;;2.20;;
72335;SDS011;65062;48.446;8.834;2023-06-10T19:09:19;2.40;;;2.08;;
72335;SDS011;65062;48.446;8.834;2023-06-10T19:15:21;2.20;;;2.00;;
72335;SDS011;65062;48.446;8.834;2023-06-10T19:18:21;2.67;;;1.90;;
72335;SDS011;65062;48.446;8.834;2023-06-10T19:21:21;2.85;;;2.10;;